Time;durP1;ratioP1;P1;durP2;ratioP2;P2;SDS_P1;SDS_P2;PMS_P1;PMS_P2;Temp;Humidity;BMP_temperature;BMP_pressure;BME280_temperature;BME280_humidity;BME280_pressure;Samples;Min_cycle;Max_cycle;Signal;HPM_P1;HPM_P2
2021/12/14 00:01:45;;;;;;;28.20;15.13;;;;;;;;;;5092181;28;20032;-69
2021/12/14 00:04:11;;;;;;;32.28;16.15;;;;;;;;;;5082700;28;20032;-69
2021/12/14 00:06:39;;;;;;;31.23;14.68;;;;;;;;;;5093640;28;20032;-69
2021/12/14 00:09:08;;;;;;;28.15;14.68;;;;;;;;;;5093710;28;20089;-69
2021/12/14 00:16:42;;;;;;;43.22;14.73;;;;;;;;;;5072968;28;20458;-70
2021/12/14 00:19:09;;;;;;;32.30;14.33;;;;;;;;;;5092251;28;20031;-70
2021/12/14 00:21:36;;;;;;;35.83;15.27;;;;;;;;;;5092328;28;20054;-69
2021/12/14 00:24:06;;;;;;;37.47;15.37;;;;;;;;;;5093249;28;20032;-69
2021/12/14 00:26:37;;;;;;;39.38;15.25;;;;;;;;;;5091950;28;20038;-69
2021/12/14 00:29:05;;;;;;;30.27;12.90;;;;;;;;;;5092925;28;20073;-70
2021/12/14 00:31:32;;;;;;;30.83;13.87;;;;;;;;;;5092552;28;20074;-69
2021/12/14 00:34:01;;;;;;;29.58;14.48;;;;;;;;;;5093181;28;20482;-69
2021/12/14 00:36:28;;;;;;;33.88;16.35;;;;;;;;;;5091767;28;20489;-69
2021/12/14 00:38:57;;;;;;;29.77;14.23;;;;;;;;;;5093493;28;20035;-69
2021/12/14 00:41:26;;;;;;;33.00;14.77;;;;;;;;;;5092467;28;20364;-69
2021/12/14 00:43:52;;;;;;;31.83;14.80;;;;;;;;;;5093122;28;20028;-69
2021/12/14 00:46:19;;;;;;;33.70;15.27;;;;;;;;;;5090062;28;20036;-70
2021/12/14 00:48:46;;;;;;;31.83;14.65;;;;;;;;;;5091988;28;20028;-69
2021/12/14 00:51:12;;;;;;;32.55;17.50;;;;;;;;;;5087629;28;20032;-69
2021/12/14 00:53:39;;;;;;;42.43;19.70;;;;;;;;;;5093013;28;20032;-70
2021/12/14 00:56:08;;;;;;;34.88;18.65;;;;;;;;;;5092499;28;20065;-70
2021/12/14 00:58:36;;;;;;;42.45;19.17;;;;;;;;;;5091969;28;20390;-70
2021/12/14 01:01:05;;;;;;;39.25;18.05;;;;;;;;;;5086379;28;20031;-70
2021/12/14 01:03:33;;;;;;;37.45;18.58;;;;;;;;;;5090839;28;20024;-70
2021/12/14 01:06:00;;;;;;;35.80;18.38;;;;;;;;;;5088121;28;20020;-70
2021/12/14 01:08:31;;;;;;;37.35;18.85;;;;;;;;;;5088187;28;20404;-69
2021/12/14 01:11:17;;;;;;;43.05;20.65;;;;;;;;;;5084609;28;20040;-69
2021/12/14 01:13:53;;;;;;;44.55;19.05;;;;;;;;;;5092268;28;20031;-70
2021/12/14 01:16:35;;;;;;;35.03;18.65;;;;;;;;;;5089538;28;20023;-70
2021/12/14 01:19:18;;;;;;;34.80;18.58;;;;;;;;;;5074741;28;20104;-70
2021/12/14 01:25:25;;;;;;;40.75;20.25;;;;;;;;;;5091971;28;20024;-70
2021/12/14 01:27:23;;;;;;;39.55;21.23;;;;;;;;;;5092713;28;20123;-70
2021/12/14 01:29:52;;;;;;;60.65;28.58;;;;;;;;;;5114813;28;20032;-70
2021/12/14 01:32:21;;;;;;;83.60;39.53;;;;;;;;;;5116426;28;20024;-70
2021/12/14 01:34:48;;;;;;;88.40;45.13;;;;;;;;;;5117137;27;20023;-70
2021/12/14 01:37:19;;;;;;;97.07;45.97;;;;;;;;;;5114741;28;20016;-69
2021/12/14 01:40:00;;;;;;;86.13;46.30;;;;;;;;;;5116245;28;20031;-69
2021/12/14 01:42:28;;;;;;;99.93;49.00;;;;;;;;;;5114977;28;20020;-69
2021/12/14 01:45:04;;;;;;;92.60;50.75;;;;;;;;;;5115143;28;20023;-69
2021/12/14 01:47:33;;;;;;;91.65;49.40;;;;;;;;;;5112901;28;20041;-69
2021/12/14 01:50:00;;;;;;;96.57;51.47;;;;;;;;;;5113605;27;20012;-69
2021/12/14 01:52:29;;;;;;;102.40;56.85;;;;;;;;;;5115421;27;20153;-70
2021/12/14 01:54:58;;;;;;;101.60;54.60;;;;;;;;;;5114616;28;20030;-69
2021/12/14 01:57:27;;;;;;;106.43;57.15;;;;;;;;;;5115654;28;20485;-69
2021/12/14 01:59:57;;;;;;;108.65;58.10;;;;;;;;;;5114261;28;20478;-70
2021/12/14 02:02:40;;;;;;;110.95;63.20;;;;;;;;;;5112880;27;20065;-69
2021/12/14 02:05:09;;;;;;;112.55;63.50;;;;;;;;;;5113504;28;20027;-70
2021/12/14 02:07:36;;;;;;;123.45;65.50;;;;;;;;;;5111817;28;20093;-70
2021/12/14 02:10:07;;;;;;;111.63;63.17;;;;;;;;;;5108197;28;20020;-69
2021/12/14 02:12:36;;;;;;;107.78;59.80;;;;;;;;;;5114146;27;20023;-69
2021/12/14 02:15:17;;;;;;;108.43;61.60;;;;;;;;;;5109528;27;20055;-69
2021/12/14 02:17:45;;;;;;;103.45;59.72;;;;;;;;;;5109341;27;20030;-70
2021/12/14 02:20:12;;;;;;;111.93;62.88;;;;;;;;;;5106918;28;20091;-69
2021/12/14 02:22:39;;;;;;;115.97;65.43;;;;;;;;;;5111564;27;20048;-69
2021/12/14 02:25:06;;;;;;;130.02;66.10;;;;;;;;;;5127986;27;20027;-70
2021/12/14 02:27:40;;;;;;;119.68;68.75;;;;;;;;;;5131764;27;20243;-70
2021/12/14 02:30:09;;;;;;;134.65;70.53;;;;;;;;;;5128448;27;20035;-69
2021/12/14 02:32:35;;;;;;;124.32;68.93;;;;;;;;;;5131831;27;20031;-69
2021/12/14 02:35:04;;;;;;;137.63;70.78;;;;;;;;;;5133821;27;20031;-69
2021/12/14 02:37:39;;;;;;;131.90;73.38;;;;;;;;;;5130319;27;20023;-72
2021/12/14 02:40:17;;;;;;;133.27;71.93;;;;;;;;;;5105019;27;20489;-70
2021/12/14 02:42:43;;;;;;;128.00;69.20;;;;;;;;;;5119074;27;20124;-69
2021/12/14 02:45:09;;;;;;;140.60;74.55;;;;;;;;;;5129342;27;20038;-70
2021/12/14 02:47:36;;;;;;;126.20;72.20;;;;;;;;;;5130895;27;20034;-71
2021/12/14 02:50:03;;;;;;;133.55;73.97;;;;;;;;;;5124378;27;20027;-70
2021/12/14 02:52:36;;;;;;;139.38;76.38;;;;;;;;;;5126575;27;20035;-70
2021/12/14 02:55:29;;;;;;;146.95;76.63;;;;;;;;;;5129898;27;20160;-70
2021/12/14 02:58:05;;;;;;;133.02;75.53;;;;;;;;;;5121708;27;20035;-71
2021/12/14 03:00:43;;;;;;;134.73;71.15;;;;;;;;;;5114053;27;20021;-71
2021/12/14 03:03:10;;;;;;;127.97;71.38;;;;;;;;;;5132028;27;20476;-70
2021/12/14 03:05:37;;;;;;;138.85;72.25;;;;;;;;;;5128018;27;20118;-73
2021/12/14 03:08:13;;;;;;;132.05;73.57;;;;;;;;;;5129155;27;20069;-72
2021/12/14 03:13:46;;;;;;;141.40;78.15;;;;;;;;;;5113651;27;20027;-73
2021/12/14 03:16:17;;;;;;;145.00;77.28;;;;;;;;;;5130107;27;20027;-72
2021/12/14 03:18:47;;;;;;;143.45;75.82;;;;;;;;;;5122975;27;20022;-70
2021/12/14 03:21:16;;;;;;;139.50;75.95;;;;;;;;;;5121842;27;20023;-68
2021/12/14 03:23:54;;;;;;;135.40;73.93;;;;;;;;;;5117819;27;20043;-70
2021/12/14 03:26:22;;;;;;;141.90;75.60;;;;;;;;;;5120683;27;20023;-72
2021/12/14 03:28:50;;;;;;;128.57;71.32;;;;;;;;;;5109164;27;20137;-69
2021/12/14 03:31:25;;;;;;;125.68;69.78;;;;;;;;;;5112539;27;20039;-71
2021/12/14 03:33:57;;;;;;;125.78;71.78;;;;;;;;;;5124811;27;20253;-70
2021/12/14 03:36:26;;;;;;;134.98;71.25;;;;;;;;;;5129822;27;20020;-70
2021/12/14 03:38:52;;;;;;;134.40;72.45;;;;;;;;;;5128386;27;20411;-70
2021/12/14 03:41:20;;;;;;;133.07;74.88;;;;;;;;;;5129412;27;20042;-70
2021/12/14 03:44:02;;;;;;;126.20;73.72;;;;;;;;;;5124614;27;20073;-70
2021/12/14 03:46:34;;;;;;;133.45;71.13;;;;;;;;;;5129010;27;21336;-71
2021/12/14 03:49:01;;;;;;;118.32;66.22;;;;;;;;;;5127598;27;20064;-70
2021/12/14 03:51:27;;;;;;;110.88;66.18;;;;;;;;;;5127526;27;20071;-71
2021/12/14 03:53:56;;;;;;;127.88;71.65;;;;;;;;;;5118606;27;20027;-71
2021/12/14 03:56:23;;;;;;;113.55;65.93;;;;;;;;;;5123448;27;20062;-71
2021/12/14 03:58:50;;;;;;;115.72;68.40;;;;;;;;;;5121463;27;20173;-71
2021/12/14 04:01:19;;;;;;;113.13;65.28;;;;;;;;;;5119699;27;20273;-71
2021/12/14 04:03:47;;;;;;;105.45;64.03;;;;;;;;;;5125048;27;20022;-71
2021/12/14 04:06:14;;;;;;;107.13;61.38;;;;;;;;;;5121778;27;20123;-72
2021/12/14 04:08:40;;;;;;;102.57;61.83;;;;;;;;;;5121211;27;20102;-72
2021/12/14 04:11:08;;;;;;;103.97;61.28;;;;;;;;;;5118100;27;20045;-70
2021/12/14 04:13:37;;;;;;;108.38;60.15;;;;;;;;;;5121329;27;20541;-71
2021/12/14 04:16:04;;;;;;;88.07;52.20;;;;;;;;;;5116713;27;20068;-72
2021/12/14 04:18:31;;;;;;;93.00;51.58;;;;;;;;;;5119229;27;20027;-71
2021/12/14 04:20:58;;;;;;;90.25;48.05;;;;;;;;;;5122156;27;20123;-72
2021/12/14 04:23:26;;;;;;;82.55;45.60;;;;;;;;;;5117887;27;20159;-71
2021/12/14 04:25:54;;;;;;;78.45;44.35;;;;;;;;;;5122117;27;20042;-71
2021/12/14 04:28:22;;;;;;;69.47;40.00;;;;;;;;;;5119623;27;20115;-72
2021/12/14 04:30:50;;;;;;;71.07;37.03;;;;;;;;;;5120111;27;20088;-73
2021/12/14 04:33:18;;;;;;;67.35;36.50;;;;;;;;;;5121281;27;20026;-72
2021/12/14 04:35:46;;;;;;;61.20;34.00;;;;;;;;;;5110557;27;20119;-71
2021/12/14 04:38:22;;;;;;;120.10;63.85;;;;;;;;;;5121704;27;20026;-72
2021/12/14 04:51:58;;;;;;;67.22;34.38;;;;;;;;;;5123731;27;20046;-70
2021/12/14 04:54:40;;;;;;;64.43;35.70;;;;;;;;;;5122354;27;20105;-73
2021/12/14 04:57:24;;;;;;;69.10;36.75;;;;;;;;;;5125352;27;20023;-72
2021/12/14 04:59:52;;;;;;;60.85;34.72;;;;;;;;;;5122173;27;20121;-73
2021/12/14 05:02:22;;;;;;;63.92;35.22;;;;;;;;;;5108310;27;20054;-73
2021/12/14 05:04:50;;;;;;;61.72;34.28;;;;;;;;;;5128059;27;20092;-75
2021/12/14 05:10:00;;;;;;;61.80;32.65;;;;;;;;;;5126597;27;20555;-71
2021/12/14 05:12:29;;;;;;;60.58;32.85;;;;;;;;;;5123941;27;20412;-73
2021/12/14 05:14:56;;;;;;;54.85;32.58;;;;;;;;;;5128849;27;20077;-71
2021/12/14 05:17:23;;;;;;;54.00;30.73;;;;;;;;;;5129023;27;20019;-73
2021/12/14 05:20:14;;;;;;;57.00;31.58;;;;;;;;;;5128777;27;20368;-72
2021/12/14 05:22:43;;;;;;;58.90;32.50;;;;;;;;;;5130376;27;20047;-74
2021/12/14 05:25:13;;;;;;;78.10;37.80;;;;;;;;;;5126073;27;20027;-71
2021/12/14 05:27:43;;;;;;;78.85;37.60;;;;;;;;;;5131018;27;20448;-72
2021/12/14 05:30:11;;;;;;;72.30;38.63;;;;;;;;;;5129467;27;20112;-72
2021/12/14 05:32:38;;;;;;;70.05;38.50;;;;;;;;;;5123841;27;20027;-71
2021/12/14 05:35:04;;;;;;;75.10;40.53;;;;;;;;;;5124500;27;20072;-76
2021/12/14 05:37:34;;;;;;;77.65;38.05;;;;;;;;;;5124800;27;20039;-71
2021/12/14 05:40:05;;;;;;;69.20;35.78;;;;;;;;;;5129890;27;20027;-71
2021/12/14 05:45:22;;;;;;;69.38;35.28;;;;;;;;;;5125428;27;20041;-71
2021/12/14 05:47:50;;;;;;;70.20;35.58;;;;;;;;;;5126630;27;20054;-71
2021/12/14 05:50:18;;;;;;;61.45;32.63;;;;;;;;;;5128275;27;20427;-71
2021/12/14 05:52:44;;;;;;;64.93;35.53;;;;;;;;;;5122819;27;20034;-73
2021/12/14 05:55:12;;;;;;;75.93;37.45;;;;;;;;;;5124240;27;20062;-73
2021/12/14 05:57:41;;;;;;;66.30;37.33;;;;;;;;;;5124639;27;20094;-72
2021/12/14 06:00:09;;;;;;;72.25;36.28;;;;;;;;;;5128441;27;20031;-73
2021/12/14 06:02:39;;;;;;;69.65;36.53;;;;;;;;;;5124639;27;20031;-73
2021/12/14 06:05:11;;;;;;;78.72;36.30;;;;;;;;;;5127737;27;20059;-73
2021/12/14 06:07:37;;;;;;;72.53;35.47;;;;;;;;;;5131800;27;20038;-72
2021/12/14 06:10:03;;;;;;;69.07;35.60;;;;;;;;;;5130064;27;20060;-72
2021/12/14 06:12:31;;;;;;;64.88;35.25;;;;;;;;;;5130011;27;20048;-72
2021/12/14 06:14:59;;;;;;;67.57;35.83;;;;;;;;;;5130039;27;20034;-73
2021/12/14 06:17:34;;;;;;;65.13;35.78;;;;;;;;;;5124372;27;20283;-73
2021/12/14 06:20:03;;;;;;;69.63;34.78;;;;;;;;;;5124165;27;20041;-72
2021/12/14 06:22:30;;;;;;;62.88;34.05;;;;;;;;;;5124575;27;20043;-76
2021/12/14 06:24:58;;;;;;;66.22;34.85;;;;;;;;;;5121809;27;20035;-75
2021/12/14 06:27:27;;;;;;;73.45;33.22;;;;;;;;;;5128214;27;20042;-75
2021/12/14 06:29:55;;;;;;;72.78;35.65;;;;;;;;;;5121970;27;20031;-74
2021/12/14 06:32:23;;;;;;;70.18;33.70;;;;;;;;;;5123391;27;20049;-72
2021/12/14 06:34:51;;;;;;;66.75;32.80;;;;;;;;;;5121810;27;20030;-71
2021/12/14 06:37:42;;;;;;;60.85;31.45;;;;;;;;;;5124931;27;20461;-72
2021/12/14 06:40:18;;;;;;;69.30;33.22;;;;;;;;;;5121678;27;20061;-71
2021/12/14 06:42:52;;;;;;;56.03;29.48;;;;;;;;;;5120241;27;20023;-73
2021/12/14 06:45:23;;;;;;;59.22;28.20;;;;;;;;;;5114151;27;20080;-70
2021/12/14 06:47:54;;;;;;;57.47;31.10;;;;;;;;;;5120065;27;20031;-71
2021/12/14 06:50:23;;;;;;;61.30;32.25;;;;;;;;;;5125943;27;20026;-70
2021/12/14 06:53:01;;;;;;;66.10;34.97;;;;;;;;;;5126865;27;20045;-72
2021/12/14 06:55:28;;;;;;;70.93;38.67;;;;;;;;;;5126453;27;20117;-71
2021/12/14 06:58:05;;;;;;;201.77;118.60;;;;;;;;;;5125422;27;20472;-70
2021/12/14 07:00:31;;;;;;;194.77;119.28;;;;;;;;;;5126901;27;20043;-71
2021/12/14 07:02:57;;;;;;;163.38;94.10;;;;;;;;;;5107283;27;20027;-71
2021/12/14 07:05:25;;;;;;;162.82;89.95;;;;;;;;;;5125266;27;20099;-71
2021/12/14 07:07:51;;;;;;;177.90;98.55;;;;;;;;;;5125041;27;20023;-72
2021/12/14 07:10:19;;;;;;;181.07;110.15;;;;;;;;;;5129889;27;20019;-72
2021/12/14 07:12:46;;;;;;;166.75;104.63;;;;;;;;;;5124542;27;20038;-72
2021/12/14 07:15:21;;;;;;;162.63;95.72;;;;;;;;;;5123465;27;20087;-71
2021/12/14 07:17:54;;;;;;;159.10;94.35;;;;;;;;;;5107114;27;20020;-70
2021/12/14 07:20:30;;;;;;;123.15;70.18;;;;;;;;;;5122579;27;20034;-71
2021/12/14 07:23:15;;;;;;;141.15;75.22;;;;;;;;;;5123436;27;20051;-71
2021/12/14 07:25:41;;;;;;;144.60;74.75;;;;;;;;;;5123568;27;20023;-71
2021/12/14 07:28:08;;;;;;;146.05;80.65;;;;;;;;;;5119956;27;20504;-71
2021/12/14 07:30:37;;;;;;;151.40;79.20;;;;;;;;;;5127934;27;20775;-71
2021/12/14 07:33:14;;;;;;;155.18;82.30;;;;;;;;;;5128528;27;20075;-71
2021/12/14 07:35:40;;;;;;;152.52;81.82;;;;;;;;;;5122848;27;20030;-71
2021/12/14 07:38:25;;;;;;;144.82;84.40;;;;;;;;;;5118423;27;20351;-71
2021/12/14 07:40:54;;;;;;;178.93;101.13;;;;;;;;;;5125212;27;20050;-71
2021/12/14 07:43:23;;;;;;;178.57;101.95;;;;;;;;;;5122139;27;20027;-74
2021/12/14 07:45:51;;;;;;;190.88;111.68;;;;;;;;;;5122794;27;20523;-71
2021/12/14 07:48:18;;;;;;;187.43;110.28;;;;;;;;;;5120902;27;20031;-71
2021/12/14 07:50:50;;;;;;;187.35;115.50;;;;;;;;;;5119585;27;20019;-73
2021/12/14 07:53:29;;;;;;;182.38;110.88;;;;;;;;;;5119333;27;20072;-73
2021/12/14 07:55:55;;;;;;;203.85;116.18;;;;;;;;;;5118583;27;20046;-72
2021/12/14 07:58:30;;;;;;;197.90;119.00;;;;;;;;;;5123233;27;20019;-73
2021/12/14 08:00:56;;;;;;;177.88;103.95;;;;;;;;;;5123875;27;20027;-71
2021/12/14 08:03:33;;;;;;;184.80;108.95;;;;;;;;;;5118243;27;20261;-75
2021/12/14 08:05:59;;;;;;;166.65;97.13;;;;;;;;;;5120597;27;20034;-72
2021/12/14 08:09:00;;;;;;;156.93;92.90;;;;;;;;;;5124450;27;20653;-71
2021/12/14 08:14:08;;;;;;;140.18;80.93;;;;;;;;;;5124180;27;20035;-73
2021/12/14 08:16:46;;;;;;;143.07;78.32;;;;;;;;;;5119753;27;20020;-71
2021/12/14 08:19:32;;;;;;;126.82;76.50;;;;;;;;;;5123954;27;20023;-71
2021/12/14 08:22:00;;;;;;;153.52;81.72;;;;;;;;;;5122221;27;20055;-72
2021/12/14 08:24:27;;;;;;;145.15;87.85;;;;;;;;;;5123847;27;20030;-72
2021/12/14 08:26:57;;;;;;;156.52;95.03;;;;;;;;;;5121123;27;20027;-72
2021/12/14 08:29:25;;;;;;;150.50;89.38;;;;;;;;;;5120510;27;20027;-72
2021/12/14 08:31:56;;;;;;;143.95;84.93;;;;;;;;;;5121407;27;20042;-73
2021/12/14 08:34:23;;;;;;;121.95;69.82;;;;;;;;;;5123915;27;20031;-73
2021/12/14 08:36:52;;;;;;;101.32;61.65;;;;;;;;;;5120527;27;21325;-70
2021/12/14 08:39:24;;;;;;;107.88;66.07;;;;;;;;;;5116828;27;20117;-71
2021/12/14 08:41:57;;;;;;;100.38;57.70;;;;;;;;;;5116891;27;20412;-71
2021/12/14 08:44:35;;;;;;;99.15;57.78;;;;;;;;;;5120185;27;20054;-72
2021/12/14 08:47:04;;;;;;;54.03;32.78;;;;;;;;;;5119169;27;20019;-71
2021/12/14 08:49:30;;;;;;;51.25;27.38;;;;;;;;;;5123893;27;20332;-73
2021/12/14 08:51:57;;;;;;;42.78;24.88;;;;;;;;;;5119340;27;20039;-73
2021/12/14 08:54:29;;;;;;;71.22;38.67;;;;;;;;;;5121982;27;20027;-72
2021/12/14 08:57:05;;;;;;;80.70;46.47;;;;;;;;;;5120016;27;20670;-72
2021/12/14 08:59:32;;;;;;;82.57;50.38;;;;;;;;;;5116484;27;20612;-71
2021/12/14 09:02:02;;;;;;;103.22;55.55;;;;;;;;;;5117978;27;20080;-71
2021/12/14 09:04:31;;;;;;;100.20;59.67;;;;;;;;;;5122883;27;20031;-75
2021/12/14 09:07:01;;;;;;;117.65;61.55;;;;;;;;;;5116825;27;20532;-74
2021/12/14 09:09:30;;;;;;;137.65;78.25;;;;;;;;;;5120582;27;20164;-73
2021/12/14 09:12:03;;;;;;;142.38;83.50;;;;;;;;;;5116191;27;20341;-76
2021/12/14 09:14:29;;;;;;;148.77;84.80;;;;;;;;;;5118114;27;20027;-70
2021/12/14 09:16:57;;;;;;;143.50;81.30;;;;;;;;;;5097098;28;20023;-72
2021/12/14 09:19:33;;;;;;;137.60;81.80;;;;;;;;;;5107533;27;20083;-74
2021/12/14 09:22:02;;;;;;;133.27;79.05;;;;;;;;;;5121521;27;20085;-74
2021/12/14 09:24:29;;;;;;;135.77;80.63;;;;;;;;;;5118988;27;20115;-74
2021/12/14 09:27:00;;;;;;;127.88;78.28;;;;;;;;;;5122095;27;20034;-71
2021/12/14 09:29:30;;;;;;;136.93;77.90;;;;;;;;;;5119597;27;20027;-72
2021/12/14 09:31:58;;;;;;;129.68;77.07;;;;;;;;;;5115143;27;20039;-72
2021/12/14 09:34:26;;;;;;;148.10;81.63;;;;;;;;;;5120609;28;20490;-72
2021/12/14 09:36:57;;;;;;;141.57;82.70;;;;;;;;;;5122667;27;20380;-70
2021/12/14 09:39:26;;;;;;;134.93;82.78;;;;;;;;;;5121629;27;20072;-72
2021/12/14 09:41:53;;;;;;;146.88;88.07;;;;;;;;;;5121743;27;20023;-69
2021/12/14 09:44:22;;;;;;;145.32;81.75;;;;;;;;;;5117715;27;20066;-70
2021/12/14 09:46:49;;;;;;;142.70;81.10;;;;;;;;;;5119998;27;20019;-72
2021/12/14 09:49:16;;;;;;;141.90;83.60;;;;;;;;;;5102769;27;20429;-71
2021/12/14 09:51:48;;;;;;;135.00;82.22;;;;;;;;;;5123686;27;20384;-72
2021/12/14 09:54:16;;;;;;;147.88;79.97;;;;;;;;;;5123997;27;20030;-72
2021/12/14 09:56:45;;;;;;;148.68;80.60;;;;;;;;;;5124617;27;20475;-73
2021/12/14 09:59:15;;;;;;;134.73;80.22;;;;;;;;;;5117201;27;20031;-71
2021/12/14 10:01:47;;;;;;;138.40;80.53;;;;;;;;;;5114697;27;20046;-70
2021/12/14 10:04:16;;;;;;;145.63;81.40;;;;;;;;;;5115847;27;20027;-72
2021/12/14 10:06:42;;;;;;;146.15;79.50;;;;;;;;;;5119919;27;20046;-72
2021/12/14 10:09:11;;;;;;;141.20;81.95;;;;;;;;;;5119941;27;20068;-70
2021/12/14 10:11:59;;;;;;;136.57;83.45;;;;;;;;;;5113918;27;20050;-70
2021/12/14 10:14:27;;;;;;;136.88;80.53;;;;;;;;;;5125683;27;20066;-69
2021/12/14 10:16:54;;;;;;;132.75;78.05;;;;;;;;;;5122570;27;20033;-70
2021/12/14 10:19:23;;;;;;;135.82;77.93;;;;;;;;;;5118135;27;20022;-69
2021/12/14 10:21:54;;;;;;;130.60;72.63;;;;;;;;;;5124627;27;20322;-70
2021/12/14 10:24:21;;;;;;;134.05;78.00;;;;;;;;;;5124996;27;20038;-71
2021/12/14 10:26:50;;;;;;;135.35;75.88;;;;;;;;;;5124867;27;20034;-71
2021/12/14 10:29:17;;;;;;;142.00;79.47;;;;;;;;;;5126197;27;20027;-70
2021/12/14 10:31:46;;;;;;;137.90;81.75;;;;;;;;;;5128205;27;20209;-70
2021/12/14 10:34:17;;;;;;;147.43;87.53;;;;;;;;;;5124620;27;20476;-70
2021/12/14 10:36:46;;;;;;;150.50;87.40;;;;;;;;;;5126197;27;20030;-71
2021/12/14 10:44:32;;;;;;;149.25;89.53;;;;;;;;;;5119107;27;20050;-69
2021/12/14 10:46:59;;;;;;;151.13;86.90;;;;;;;;;;5120392;27;20019;-71
2021/12/14 10:49:26;;;;;;;137.50;79.32;;;;;;;;;;5126280;27;20023;-71
2021/12/14 10:51:55;;;;;;;225.10;119.00;;;;;;;;;;5126382;27;20027;-70
2021/12/14 10:54:22;;;;;;;255.65;131.55;;;;;;;;;;5129066;27;20033;-69
2021/12/14 10:56:52;;;;;;;265.42;135.95;;;;;;;;;;5126566;27;20023;-72
2021/12/14 10:59:19;;;;;;;266.45;139.73;;;;;;;;;;5130799;27;20464;-70
2021/12/14 11:01:50;;;;;;;254.10;135.65;;;;;;;;;;5118727;27;20019;-71
2021/12/14 11:04:18;;;;;;;255.45;138.40;;;;;;;;;;5124758;27;20384;-70
2021/12/14 11:06:46;;;;;;;268.17;142.43;;;;;;;;;;5124439;27;20533;-71
2021/12/14 11:12:07;;;;;;;244.43;131.85;;;;;;;;;;5123665;27;20073;-74
2021/12/14 11:14:37;;;;;;;229.43;125.50;;;;;;;;;;5125665;27;20015;-71
2021/12/14 11:19:56;;;;;;;202.95;116.82;;;;;;;;;;5124075;27;20034;-72
2021/12/14 11:22:41;;;;;;;208.02;116.68;;;;;;;;;;5127435;27;20042;-73
2021/12/14 11:25:20;;;;;;;170.13;100.95;;;;;;;;;;5123704;27;20085;-73
2021/12/14 11:27:48;;;;;;;180.77;104.88;;;;;;;;;;5130717;27;20034;-73
2021/12/14 11:30:19;;;;;;;176.27;107.45;;;;;;;;;;5128309;27;20058;-77
2021/12/14 11:32:48;;;;;;;184.68;113.05;;;;;;;;;;5127277;27;20473;-72
2021/12/14 11:35:18;;;;;;;184.20;106.53;;;;;;;;;;5128301;27;20035;-73
2021/12/14 11:37:44;;;;;;;175.15;108.82;;;;;;;;;;5124947;27;20019;-74
2021/12/14 11:40:11;;;;;;;171.93;104.60;;;;;;;;;;5127170;27;20392;-76
2021/12/14 11:42:38;;;;;;;170.63;98.68;;;;;;;;;;5123521;27;20030;-72
2021/12/14 11:45:07;;;;;;;163.85;98.90;;;;;;;;;;5128557;27;20098;-76
2021/12/14 11:50:04;;;;;;;168.57;101.53;;;;;;;;;;5127585;27;20527;-69
2021/12/14 11:52:33;;;;;;;183.00;108.05;;;;;;;;;;5127435;27;20072;-71
2021/12/14 11:55:00;;;;;;;179.55;109.55;;;;;;;;;;5123730;27;20394;-71
2021/12/14 11:57:32;;;;;;;193.90;116.13;;;;;;;;;;5123392;27;20147;-70
2021/12/14 12:00:06;;;;;;;196.15;114.57;;;;;;;;;;5127873;27;20030;-71
2021/12/14 12:02:32;;;;;;;200.60;113.47;;;;;;;;;;5114759;27;20038;-71
2021/12/14 12:04:59;;;;;;;200.07;114.63;;;;;;;;;;5122267;27;20085;-71
2021/12/14 12:10:10;;;;;;;191.40;110.25;;;;;;;;;;5124508;27;20045;-72
2021/12/14 12:12:40;;;;;;;179.68;105.85;;;;;;;;;;5121708;27;20031;-70
2021/12/14 12:15:07;;;;;;;181.25;101.65;;;;;;;;;;5106426;27;20031;-70
2021/12/14 12:17:48;;;;;;;164.60;97.45;;;;;;;;;;5126161;27;20023;-70
2021/12/14 12:20:26;;;;;;;168.60;97.07;;;;;;;;;;5122184;27;20019;-70
2021/12/14 12:22:55;;;;;;;170.95;103.22;;;;;;;;;;5127899;27;20051;-71
2021/12/14 12:25:29;;;;;;;180.30;106.47;;;;;;;;;;5132202;27;20357;-71
2021/12/14 12:27:55;;;;;;;180.50;105.55;;;;;;;;;;5130985;27;20030;-71
2021/12/14 12:30:35;;;;;;;170.00;103.00;;;;;;;;;;5127779;27;20031;-70
2021/12/14 12:33:05;;;;;;;198.30;112.22;;;;;;;;;;5113043;27;20038;-71
2021/12/14 12:35:36;;;;;;;199.07;116.05;;;;;;;;;;5126825;27;20023;-71
2021/12/14 12:38:17;;;;;;;186.15;114.15;;;;;;;;;;5128337;27;20019;-70
2021/12/14 12:40:48;;;;;;;196.05;116.40;;;;;;;;;;5130176;27;20031;-70
2021/12/14 12:43:16;;;;;;;201.63;114.93;;;;;;;;;;5129475;27;20038;-70
2021/12/14 12:45:52;;;;;;;182.13;110.03;;;;;;;;;;5127265;27;20020;-71
2021/12/14 12:48:38;;;;;;;191.27;115.22;;;;;;;;;;5127651;27;20038;-71
2021/12/14 12:51:04;;;;;;;201.63;118.10;;;;;;;;;;5128085;27;20106;-71
2021/12/14 12:53:30;;;;;;;204.70;121.10;;;;;;;;;;5130742;28;20101;-73
2021/12/14 12:56:12;;;;;;;212.23;126.10;;;;;;;;;;5132972;27;20029;-73
2021/12/14 12:58:42;;;;;;;202.73;124.63;;;;;;;;;;5127449;28;20103;-73
2021/12/14 13:01:08;;;;;;;219.20;133.82;;;;;;;;;;5130149;28;20376;-74
2021/12/14 13:03:36;;;;;;;207.95;128.88;;;;;;;;;;5130019;27;20076;-73
2021/12/14 13:06:11;;;;;;;229.63;142.65;;;;;;;;;;5136520;27;20404;-73
2021/12/14 13:08:39;;;;;;;237.52;144.15;;;;;;;;;;5126638;27;20031;-72
2021/12/14 13:11:12;;;;;;;239.30;146.57;;;;;;;;;;5130569;27;20068;-72
2021/12/14 13:13:41;;;;;;;249.45;149.27;;;;;;;;;;5132441;27;20031;-73
2021/12/14 13:16:21;;;;;;;240.82;143.65;;;;;;;;;;5138399;27;20023;-74
2021/12/14 13:19:13;;;;;;;235.55;145.35;;;;;;;;;;5123817;27;20401;-72
2021/12/14 13:21:39;;;;;;;231.98;140.10;;;;;;;;;;5137576;27;20023;-72
2021/12/14 13:24:08;;;;;;;229.30;132.13;;;;;;;;;;5132642;27;20023;-73
2021/12/14 13:26:37;;;;;;;233.18;133.75;;;;;;;;;;5136538;27;20031;-73
2021/12/14 13:29:12;;;;;;;228.52;134.95;;;;;;;;;;5137428;27;20461;-73
2021/12/14 13:31:38;;;;;;;227.98;136.18;;;;;;;;;;5129711;27;20012;-73
2021/12/14 13:34:07;;;;;;;222.77;132.02;;;;;;;;;;5137919;27;20365;-71
2021/12/14 13:36:33;;;;;;;219.15;135.48;;;;;;;;;;5138406;27;20019;-73
2021/12/14 13:39:00;;;;;;;213.02;130.25;;;;;;;;;;5140332;27;20019;-72
2021/12/14 13:41:45;;;;;;;207.75;126.53;;;;;;;;;;5137178;27;20026;-73
2021/12/14 13:44:11;;;;;;;221.00;133.73;;;;;;;;;;5137344;27;20015;-73
2021/12/14 13:46:37;;;;;;;235.98;129.60;;;;;;;;;;5135812;27;20368;-74
2021/12/14 13:49:04;;;;;;;209.43;123.50;;;;;;;;;;5130025;27;20023;-74
2021/12/14 13:51:30;;;;;;;196.68;121.78;;;;;;;;;;5133630;27;20420;-73
2021/12/14 13:53:57;;;;;;;210.35;121.70;;;;;;;;;;5135853;27;20050;-75
2021/12/14 13:56:50;;;;;;;205.52;124.00;;;;;;;;;;5136113;27;20116;-73
2021/12/14 13:59:17;;;;;;;200.75;121.65;;;;;;;;;;5127611;27;20039;-75
2021/12/14 14:01:47;;;;;;;196.30;121.25;;;;;;;;;;5135443;27;20069;-74
2021/12/14 14:04:18;;;;;;;207.88;124.95;;;;;;;;;;5136326;27;20019;-73
2021/12/14 14:06:44;;;;;;;208.27;125.57;;;;;;;;;;5135946;27;20050;-72
2021/12/14 14:09:14;;;;;;;202.02;123.35;;;;;;;;;;5135998;27;20511;-75
2021/12/14 14:11:52;;;;;;;212.15;124.32;;;;;;;;;;5134485;27;20030;-72
2021/12/14 14:14:18;;;;;;;205.48;120.32;;;;;;;;;;5132715;27;20031;-72
2021/12/14 14:16:54;;;;;;;203.27;117.47;;;;;;;;;;5136601;27;20019;-72
2021/12/14 14:19:22;;;;;;;190.55;109.43;;;;;;;;;;5136456;27;20073;-74
2021/12/14 14:21:50;;;;;;;192.38;110.35;;;;;;;;;;5136219;27;20553;-73
2021/12/14 14:24:18;;;;;;;193.68;116.20;;;;;;;;;;5136107;27;20477;-75
2021/12/14 14:26:44;;;;;;;200.23;115.90;;;;;;;;;;5135765;27;20038;-74
2021/12/14 14:29:12;;;;;;;195.35;118.95;;;;;;;;;;5130244;27;20028;-74
2021/12/14 14:31:43;;;;;;;201.40;116.28;;;;;;;;;;5129403;27;20060;-73
2021/12/14 14:34:26;;;;;;;199.40;119.90;;;;;;;;;;5135163;27;20492;-72
2021/12/14 14:37:01;;;;;;;204.40;121.00;;;;;;;;;;5135495;27;20022;-73
2021/12/14 14:39:31;;;;;;;203.82;122.25;;;;;;;;;;5136165;27;20020;-72
2021/12/14 14:41:59;;;;;;;205.30;121.65;;;;;;;;;;5136268;27;20384;-71
2021/12/14 14:44:37;;;;;;;186.77;110.90;;;;;;;;;;5135865;27;20477;-72
2021/12/14 14:47:07;;;;;;;184.57;105.38;;;;;;;;;;5124780;27;20027;-72
2021/12/14 14:49:33;;;;;;;170.93;96.97;;;;;;;;;;5135796;27;20396;-74
2021/12/14 14:52:01;;;;;;;173.57;101.40;;;;;;;;;;5135950;27;20031;-73
2021/12/14 14:54:33;;;;;;;163.35;95.50;;;;;;;;;;5135747;27;20027;-72
2021/12/14 14:57:12;;;;;;;159.48;91.75;;;;;;;;;;5135405;27;20530;-72
2021/12/14 14:59:40;;;;;;;169.85;93.63;;;;;;;;;;5135477;27;20023;-72
2021/12/14 15:02:07;;;;;;;165.63;95.97;;;;;;;;;;5136966;27;20031;-72
2021/12/14 15:05:12;;;;;;;162.50;92.68;;;;;;;;;;5131177;27;20046;-72
2021/12/14 15:07:51;;;;;;;169.75;92.88;;;;;;;;;;5028444;28;20403;-73
2021/12/14 15:10:18;;;;;;;160.35;91.57;;;;;;;;;;5125608;27;20035;-72